createdAt,value
2022-11-17T00:00:22.872Z,97061.03
2022-11-17T00:02:49.633Z,97046.78
2022-11-17T00:05:19.948Z,97040.41
2022-11-17T00:07:46.840Z,97049.69
2022-11-17T00:10:13.646Z,97037.28
2022-11-17T00:13:02.196Z,97030.41
2022-11-17T00:15:29.451Z,97027.50
2022-11-17T00:18:19.334Z,97023.00
2022-11-17T00:21:15.937Z,97011.34
2022-11-17T00:23:48.627Z,97014.78
2022-11-17T00:26:19.285Z,97014.53
2022-11-17T00:28:46.320Z,97012.44
2022-11-17T00:31:32.377Z,97020.88
2022-11-17T00:34:05.405Z,97020.06
2022-11-17T00:36:37.213Z,97021.41
2022-11-17T00:39:04.821Z,97012.16
2022-11-17T00:42:21.986Z,97014.28
2022-11-17T00:44:49.225Z,97005.00
2022-11-17T00:47:15.994Z,96996.59
2022-11-17T00:49:42.813Z,97002.13
2022-11-17T00:52:10.203Z,96995.00
2022-11-17T00:54:37.206Z,96993.66
2022-11-17T00:57:04.269Z,96995.50
2022-11-17T00:59:30.924Z,97000.53
2022-11-17T01:01:57.847Z,96993.66
2022-11-17T01:04:24.720Z,97000.78
2022-11-17T01:10:10.450Z,96995.25
2022-11-17T01:12:37.227Z,97000.53
2022-11-17T01:15:04.065Z,97002.94
2022-11-17T01:17:31.051Z,97002.38
2022-11-17T01:19:57.866Z,97000.81
2022-11-17T01:22:24.660Z,97004.53
2022-11-17T01:24:51.438Z,97007.44
2022-11-17T01:27:20.562Z,97015.59
2022-11-17T01:29:47.917Z,97017.44
2022-11-17T01:32:15.155Z,97018.78
2022-11-17T01:34:41.941Z,97021.44
2022-11-17T01:37:20.869Z,97033.84
2022-11-17T01:39:48.526Z,97034.34
2022-11-17T01:42:17.170Z,97032.50
2022-11-17T01:44:57.844Z,97035.44
2022-11-17T01:47:30.598Z,97051.53
2022-11-17T01:50:20.235Z,97052.59
2022-11-17T01:52:48.839Z,97053.63
2022-11-17T01:55:25.415Z,97043.34
2022-11-17T01:58:00.363Z,97052.34
2022-11-17T02:00:27.844Z,97061.31
2022-11-17T02:02:54.612Z,97065.28
2022-11-17T02:05:35.251Z,97067.38
2022-11-17T02:08:05.314Z,97073.72
2022-11-17T02:10:32.474Z,97076.59
2022-11-17T02:13:01.583Z,97077.41
2022-11-17T02:15:31.193Z,97091.13
2022-11-17T02:18:00.004Z,97090.34
2022-11-17T02:20:35.854Z,97088.25
2022-11-17T02:23:21.114Z,97092.72
2022-11-17T02:25:47.836Z,97102.75
2022-11-17T02:28:20.652Z,97110.16
2022-11-17T02:30:47.504Z,97114.91
2022-11-17T02:33:19.912Z,97126.00
2022-11-17T02:35:55.325Z,97124.13
2022-11-17T02:38:22.159Z,97128.63
2022-11-17T02:40:52.221Z,97133.63
2022-11-17T02:43:45.783Z,97149.47
2022-11-17T02:46:19.878Z,97160.81
2022-11-17T02:48:50.102Z,97162.38
2022-11-17T02:51:19.997Z,97160.50
2022-11-17T02:53:47.087Z,97177.91
2022-11-17T02:56:13.842Z,97189.50
2022-11-17T02:58:40.948Z,97195.53
2022-11-17T03:01:10.868Z,97205.28
2022-11-17T03:03:40.660Z,97206.53
2022-11-17T03:06:10.523Z,97209.13
2022-11-17T03:08:55.862Z,97219.38
2022-11-17T03:11:27.288Z,97223.53
2022-11-17T03:14:01.318Z,97225.63
2022-11-17T03:16:38.858Z,97237.97
2022-11-17T03:19:14.826Z,97239.72
2022-11-17T03:22:20.221Z,97240.50
2022-11-17T03:24:58.692Z,97250.72
2022-11-17T03:27:34.956Z,97248.31
2022-11-17T03:30:03.570Z,97271.50
2022-11-17T03:32:33.282Z,97283.28
2022-11-17T03:38:21.172Z,97291.38
2022-11-17T03:40:49.528Z,97302.44
2022-11-17T03:43:18.081Z,97304.03
2022-11-17T03:45:54.066Z,97316.19
2022-11-17T03:48:27.668Z,97319.34
2022-11-17T03:51:15.503Z,97327.81
2022-11-17T03:53:42.875Z,97335.09
2022-11-17T03:56:18.522Z,97344.03
2022-11-17T03:59:14.863Z,97356.38
2022-11-17T04:01:42.131Z,97369.22
2022-11-17T04:04:13.209Z,97374.50
2022-11-17T04:06:40.079Z,97375.28
2022-11-17T04:09:06.932Z,97384.91
2022-11-17T04:11:52.414Z,97385.63
2022-11-17T04:14:37.633Z,97404.94
2022-11-17T04:17:04.529Z,97397.84
2022-11-17T04:19:31.405Z,97408.28
2022-11-17T04:21:58.202Z,97414.34
2022-11-17T04:24:25.049Z,97419.06
2022-11-17T04:27:10.483Z,97434.88
2022-11-17T04:29:37.169Z,97429.59
2022-11-17T04:32:04.265Z,97431.78
2022-11-17T04:34:31.179Z,97433.25
2022-11-17T04:37:01.687Z,97447.50
2022-11-17T04:39:32.162Z,97445.91
2022-11-17T04:42:02.352Z,97452.75
2022-11-17T04:44:30.265Z,97469.38
2022-11-17T04:46:59.436Z,97457.16
2022-11-17T04:49:26.486Z,97466.81
2022-11-17T04:51:53.546Z,97462.09
2022-11-17T04:54:21.608Z,97470.56
2022-11-17T04:56:51.423Z,97483.22
2022-11-17T04:59:18.338Z,97484.03
2022-11-17T05:01:47.647Z,97483.06
2022-11-17T05:04:15.655Z,97485.47
2022-11-17T05:06:43.619Z,97482.13
2022-11-17T05:09:17.478Z,97495.31
2022-11-17T05:12:02.932Z,97499.84
2022-11-17T05:14:30.704Z,97509.97
2022-11-17T05:17:12.196Z,97497.75
2022-11-17T05:19:44.530Z,97516.19
2022-11-17T05:22:31.087Z,97524.91
2022-11-17T05:24:58.240Z,97526.72
2022-11-17T05:27:25.070Z,97538.06
2022-11-17T05:29:51.913Z,97545.41
2022-11-17T05:32:18.666Z,97548.59
2022-11-17T05:34:45.606Z,97552.03
2022-11-17T05:37:13.690Z,97561.44
2022-11-17T05:39:40.310Z,97560.09
2022-11-17T05:42:07.015Z,97573.56
2022-11-17T05:44:33.928Z,97576.69
2022-11-17T05:47:00.984Z,97585.94
2022-11-17T05:49:28.980Z,97601.41
2022-11-17T05:51:55.859Z,97596.16
2022-11-17T05:54:22.625Z,97608.53
2022-11-17T05:56:52.124Z,97598.06
2022-11-17T05:59:34.564Z,97610.78
2022-11-17T06:02:04.174Z,97607.06
2022-11-17T06:04:33.474Z,97609.47
2022-11-17T06:07:01.092Z,97621.31
2022-11-17T06:09:29.018Z,97631.19
2022-11-17T06:11:59.763Z,97624.88
2022-11-17T06:14:31.181Z,97634.41
2022-11-17T06:16:59.769Z,97645.81
2022-11-17T06:19:32.032Z,97639.38
2022-11-17T06:22:11.721Z,97651.50
2022-11-17T06:24:41.231Z,97665.38
2022-11-17T06:27:49.356Z,97671.66
2022-11-17T06:30:16.177Z,97673.59
2022-11-17T06:32:44.386Z,97683.09
2022-11-17T06:35:13.597Z,97678.75
2022-11-17T06:37:40.495Z,97687.75
2022-11-17T06:43:27.938Z,97692.47
2022-11-17T06:45:57.999Z,97690.16
2022-11-17T06:48:27.773Z,97708.03
2022-11-17T06:50:55.388Z,97698.53
2022-11-17T06:53:32.970Z,97705.16
2022-11-17T06:56:06.217Z,97718.72
2022-11-17T06:58:35.859Z,97712.78
2022-11-17T07:01:07.256Z,97734.72
2022-11-17T07:03:35.409Z,97733.22
2022-11-17T07:06:03.784Z,97738.34
2022-11-17T07:08:30.826Z,97730.75
2022-11-17T07:11:02.292Z,97733.97
2022-11-17T07:13:29.254Z,97747.63
2022-11-17T07:15:56.141Z,97739.16
2022-11-17T07:18:23.063Z,97750.94
2022-11-17T07:20:50.077Z,97748.22
2022-11-17T07:23:16.928Z,97752.00
2022-11-17T07:25:43.793Z,97757.81
2022-11-17T07:28:16.831Z,97762.28
2022-11-17T07:30:51.807Z,97773.78
2022-11-17T07:36:52.584Z,97771.69
2022-11-17T07:39:21.710Z,97774.91
2022-11-17T07:41:57.802Z,97784.31
2022-11-17T07:44:25.481Z,97789.31
2022-11-17T07:50:24.119Z,97803.97
2022-11-17T07:52:54.789Z,97804.84
2022-11-17T07:55:28.405Z,97804.84
2022-11-17T07:57:56.485Z,97805.56
2022-11-17T08:00:23.634Z,97816.75
2022-11-17T08:02:50.838Z,97814.91
2022-11-17T08:05:31.068Z,97813.09
2022-11-17T08:07:59.020Z,97826.84
2022-11-17T08:10:31.635Z,97823.28
2022-11-17T08:13:03.558Z,97836.69
2022-11-17T08:18:20.055Z,97831.75
2022-11-17T08:20:46.866Z,97835.56
2022-11-17T08:23:13.707Z,97840.34
2022-11-17T08:25:40.492Z,97840.34
2022-11-17T08:28:07.517Z,97840.56
2022-11-17T08:30:36.209Z,97850.97
2022-11-17T08:33:03.110Z,97865.19
2022-11-17T08:35:37.308Z,97863.03
2022-11-17T08:38:04.789Z,97864.16
2022-11-17T08:40:31.659Z,97876.50
2022-11-17T08:43:01.445Z,97882.59
2022-11-17T08:45:31.960Z,97886.38
2022-11-17T08:47:58.890Z,97882.72
2022-11-17T08:50:26.267Z,97884.91
2022-11-17T08:52:53.656Z,97889.69
2022-11-17T08:55:26.867Z,97890.03
2022-11-17T08:57:53.746Z,97890.38
2022-11-17T09:00:22.123Z,97890.03
2022-11-17T09:02:49.008Z,97884.66
2022-11-17T09:05:21.502Z,97891.06
2022-11-17T09:07:48.559Z,97894.88
2022-11-17T09:10:15.625Z,97891.75
2022-11-17T09:12:42.399Z,97893.59
2022-11-17T09:15:09.542Z,97890.88
2022-11-17T09:17:36.313Z,97900.59
2022-11-17T09:20:03.252Z,97901.41
2022-11-17T09:22:30.108Z,97900.00
2022-11-17T09:24:56.808Z,97902.28
2022-11-17T09:27:23.672Z,97920.59
2022-11-17T09:29:50.439Z,97914.31
2022-11-17T09:35:35.628Z,97925.16
2022-11-17T09:38:04.451Z,97925.16
2022-11-17T09:40:37.873Z,97939.25
2022-11-17T09:43:09.147Z,97943.38
2022-11-17T09:45:38.301Z,97945.81
2022-11-17T09:48:40.316Z,97950.00
2022-11-17T09:51:05.267Z,97943.97
2022-11-17T09:53:46.605Z,97949.00
2022-11-17T09:56:14.478Z,97957.00
2022-11-17T09:58:46.644Z,97958.94
2022-11-17T10:01:15.420Z,97957.09
2022-11-17T10:03:46.341Z,97961.13
2022-11-17T10:06:16.490Z,97969.34
2022-11-17T10:08:46.525Z,97969.56
2022-11-17T10:11:33.588Z,97969.34
2022-11-17T10:14:12.565Z,97972.09
2022-11-17T10:16:40.791Z,97982.63
2022-11-17T10:19:19.209Z,97987.78
2022-11-17T10:22:21.039Z,97984.53
2022-11-17T10:24:53.761Z,97977.25
2022-11-17T10:27:22.382Z,97982.09
2022-11-17T10:29:59.362Z,97991.72
2022-11-17T10:32:27.110Z,97997.22
2022-11-17T10:34:54.804Z,97998.94
2022-11-17T10:37:23.402Z,97996.06
2022-11-17T10:39:50.267Z,98005.03
2022-11-17T10:42:24.657Z,98010.50
2022-11-17T10:44:54.637Z,98016.81
2022-11-17T10:47:36.607Z,98011.81
2022-11-17T10:50:12.676Z,98014.84
2022-11-17T10:52:39.957Z,98006.09
2022-11-17T10:55:31.206Z,98017.66
2022-11-17T10:58:02.575Z,98008.09
2022-11-17T11:00:33.743Z,98014.34
2022-11-17T11:03:10.067Z,98010.50
2022-11-17T11:05:39.629Z,98008.19
2022-11-17T11:08:21.731Z,98015.06
2022-11-17T11:10:55.597Z,98021.22
2022-11-17T11:13:36.326Z,98015.50
2022-11-17T11:16:03.715Z,98024.06
2022-11-17T11:18:31.305Z,98031.84
2022-11-17T11:21:14.752Z,98032.75
2022-11-17T11:23:59.974Z,98025.44
2022-11-17T11:29:54.979Z,98029.44
2022-11-17T11:32:30.882Z,98026.50
2022-11-17T11:35:19.447Z,98033.28
2022-11-17T11:37:59.573Z,98038.66
2022-11-17T11:43:47.773Z,98033.69
2022-11-17T11:46:15.345Z,98039.91
2022-11-17T11:48:47.419Z,98041.75
2022-11-17T11:51:29.570Z,98040.28
2022-11-17T11:54:20.655Z,98049.25
2022-11-17T11:56:48.415Z,98036.16
2022-11-17T11:59:19.044Z,98040.72
2022-11-17T12:02:07.768Z,98044.75
2022-11-17T12:04:37.823Z,98042.88
2022-11-17T12:07:23.563Z,98049.69
2022-11-17T12:09:53.595Z,98055.53
2022-11-17T12:12:40.813Z,98052.66
2022-11-17T12:15:26.295Z,98059.19
2022-11-17T12:17:53.000Z,98060.66
2022-11-17T12:20:30.820Z,98056.81
2022-11-17T12:23:12.360Z,98059.06
2022-11-17T12:25:47.889Z,98054.50
2022-11-17T12:28:27.986Z,98070.41
2022-11-17T12:31:06.655Z,98065.41
2022-11-17T12:33:55.010Z,98067.31
2022-11-17T12:36:30.224Z,98072.34
2022-11-17T12:38:58.599Z,98069.69
2022-11-17T12:41:28.948Z,98068.94
2022-11-17T12:44:18.670Z,98063.31
2022-11-17T12:46:48.636Z,98085.81
2022-11-17T12:49:24.076Z,98083.72
2022-11-17T12:52:00.379Z,98086.69
2022-11-17T12:54:38.777Z,98089.16
2022-11-17T12:57:11.120Z,98080.50
2022-11-17T12:59:39.679Z,98088.78
2022-11-17T13:02:07.160Z,98105.19
2022-11-17T13:04:37.457Z,98091.50
2022-11-17T13:07:08.327Z,98096.88
2022-11-17T13:09:37.845Z,98089.75
2022-11-17T13:12:07.287Z,98094.88
2022-11-17T13:14:37.507Z,98098.78
2022-11-17T13:17:04.953Z,98094.78
2022-11-17T13:19:35.503Z,98102.94
2022-11-17T13:22:06.165Z,98098.69
2022-11-17T13:24:35.619Z,98110.63
2022-11-17T13:27:08.019Z,98110.63
2022-11-17T13:29:38.817Z,98118.31
2022-11-17T13:32:12.136Z,98127.03
2022-11-17T13:34:42.384Z,98129.75
2022-11-17T13:37:16.676Z,98129.63
2022-11-17T13:39:54.471Z,98138.50
2022-11-17T13:42:24.680Z,98138.41
2022-11-17T13:44:54.020Z,98135.31
2022-11-17T13:47:22.175Z,98138.25
2022-11-17T13:49:49.356Z,98144.44
2022-11-17T13:52:19.853Z,98142.09
2022-11-17T13:54:47.149Z,98145.88
2022-11-17T13:57:21.749Z,98145.63
2022-11-17T13:59:51.646Z,98143.31
2022-11-17T14:02:21.091Z,98143.78
2022-11-17T14:04:51.397Z,98148.78
2022-11-17T14:07:30.087Z,98142.09
2022-11-17T14:10:00.401Z,98150.03
2022-11-17T14:12:27.760Z,98147.47
2022-11-17T14:14:54.946Z,98146.50
2022-11-17T14:17:23.324Z,98152.59
2022-11-17T14:22:26.185Z,98147.47
2022-11-17T14:25:00.663Z,98153.78
2022-11-17T14:27:31.351Z,98139.53
2022-11-17T14:29:58.646Z,98145.63
2022-11-17T14:36:21.057Z,98154.22
2022-11-17T14:38:49.600Z,98153.16
2022-11-17T14:41:17.925Z,98158.63
2022-11-17T14:43:48.617Z,98148.84
2022-11-17T14:46:20.289Z,98153.34
2022-11-17T14:48:47.592Z,98160.47
2022-11-17T14:51:16.784Z,98161.00
2022-11-17T14:53:44.846Z,98155.97
2022-11-17T14:56:14.936Z,98164.94
2022-11-17T14:58:42.425Z,98158.34
2022-11-17T15:01:12.551Z,98157.56
2022-11-17T15:03:39.976Z,98170.00
2022-11-17T15:06:18.188Z,98169.50
2022-11-17T15:08:46.847Z,98180.66
2022-11-17T15:11:15.817Z,98179.59
2022-11-17T15:13:43.313Z,98185.38
2022-11-17T15:16:10.629Z,98185.28
2022-11-17T15:18:37.752Z,98194.56
2022-11-17T15:21:09.909Z,98193.88
2022-11-17T15:23:37.925Z,98193.88
2022-11-17T15:26:05.900Z,98190.06
2022-11-17T15:28:32.730Z,98188.25
2022-11-17T15:30:59.796Z,98192.50
2022-11-17T15:33:26.648Z,98206.28
2022-11-17T15:36:00.243Z,98211.72
2022-11-17T15:38:27.004Z,98202.19
2022-11-17T15:40:54.734Z,98213.78
2022-11-17T15:43:21.828Z,98210.59
2022-11-17T15:45:48.836Z,98212.44
2022-11-17T15:48:18.731Z,98216.34
2022-11-17T15:50:45.900Z,98219.78
2022-11-17T15:53:12.606Z,98223.09
2022-11-17T15:55:39.739Z,98224.13
2022-11-17T15:58:06.523Z,98229.41
2022-11-17T16:00:34.068Z,98227.50
2022-11-17T16:03:01.622Z,98231.97
2022-11-17T16:05:28.315Z,98232.19
2022-11-17T16:07:56.273Z,98241.97
2022-11-17T16:10:23.313Z,98240.94
2022-11-17T16:12:51.603Z,98235.47
2022-11-17T16:15:19.702Z,98240.19
2022-11-17T16:17:46.473Z,98245.94
2022-11-17T16:20:13.503Z,98244.09
2022-11-17T16:22:40.257Z,98245.13
2022-11-17T16:28:01.744Z,98257.31
2022-11-17T16:30:34.232Z,98256.28
2022-11-17T16:33:02.663Z,98253.53
2022-11-17T16:35:29.458Z,98260.44
2022-11-17T16:37:57.361Z,98261.25
2022-11-17T16:40:24.093Z,98258.03
2022-11-17T16:42:50.908Z,98259.22
2022-11-17T16:45:19.046Z,98271.03
2022-11-17T16:47:46.018Z,98272.78
2022-11-17T16:50:12.990Z,98268.19
2022-11-17T16:52:41.490Z,98269.50
2022-11-17T16:55:22.020Z,98278.44
2022-11-17T16:57:51.693Z,98283.72
2022-11-17T17:00:18.692Z,98276.59
2022-11-17T17:02:48.925Z,98286.38
2022-11-17T17:05:25.527Z,98282.91
2022-11-17T17:07:52.376Z,98289.13
2022-11-17T17:10:19.051Z,98290.75
2022-11-17T17:12:45.822Z,98287.50
2022-11-17T17:15:19.026Z,98288.00
2022-11-17T17:17:45.790Z,98291.66
2022-11-17T17:20:12.488Z,98292.38
2022-11-17T17:22:39.524Z,98300.19
2022-11-17T17:25:06.571Z,98305.47
2022-11-17T17:27:33.436Z,98302.34
2022-11-17T17:36:38.767Z,98317.94
2022-11-17T17:39:06.207Z,98314.63
2022-11-17T17:41:34.934Z,98311.19
2022-11-17T17:44:03.467Z,98321.63
2022-11-17T17:46:31.226Z,98328.75
2022-11-17T17:48:58.456Z,98327.34
2022-11-17T17:51:29.414Z,98332.41
2022-11-17T17:53:58.573Z,98331.72
2022-11-17T17:56:25.612Z,98330.91
2022-11-17T17:58:54.650Z,98332.31
2022-11-17T18:01:23.343Z,98333.81
2022-11-17T18:03:50.895Z,98340.22
2022-11-17T18:06:21.567Z,98339.50
2022-11-17T18:08:49.112Z,98349.50
2022-11-17T18:11:19.187Z,98352.56
2022-11-17T18:21:56.353Z,98367.69
2022-11-17T18:24:23.228Z,98374.25
2022-11-17T18:26:50.538Z,98375.72
2022-11-17T18:29:20.020Z,98376.50
2022-11-17T18:31:48.430Z,98372.84
2022-11-17T18:34:17.045Z,98379.41
2022-11-17T18:39:28.977Z,98380.06
2022-11-17T18:42:08.537Z,98375.44
2022-11-17T18:44:42.131Z,98382.94
2022-11-17T18:47:13.127Z,98385.22
2022-11-17T18:52:27.101Z,98392.22
2022-11-17T18:54:57.058Z,98388.22
2022-11-17T18:57:24.209Z,98402.31
2022-11-17T18:59:51.174Z,98399.44
2022-11-17T19:02:18.096Z,98395.22
2022-11-17T19:04:44.951Z,98397.28
2022-11-17T19:07:12.039Z,98394.28
2022-11-17T19:09:39.241Z,98405.41
2022-11-17T19:12:09.605Z,98415.13
2022-11-17T19:14:37.692Z,98417.56
2022-11-17T19:17:07.640Z,98414.94
2022-11-17T19:19:34.971Z,98412.75
2022-11-17T19:22:01.985Z,98418.25
2022-11-17T19:24:28.847Z,98412.63
2022-11-17T19:26:55.714Z,98423.50
2022-11-17T19:29:22.951Z,98420.06
2022-11-17T19:31:51.463Z,98416.63
2022-11-17T19:34:18.709Z,98427.84
2022-11-17T19:36:45.673Z,98425.75
2022-11-17T19:39:13.838Z,98428.38
2022-11-17T19:41:41.255Z,98434.13
2022-11-17T19:44:09.108Z,98437.78
2022-11-17T19:46:36.577Z,98435.81
2022-11-17T19:49:04.370Z,98436.97
2022-11-17T19:51:32.156Z,98446.34
2022-11-17T19:54:04.349Z,98453.59
2022-11-17T19:56:34.339Z,98446.56
2022-11-17T19:59:03.832Z,98462.38
2022-11-17T20:01:31.361Z,98453.09
2022-11-17T20:03:59.559Z,98455.81
2022-11-17T20:06:27.947Z,98462.44
2022-11-17T20:08:57.971Z,98463.72
2022-11-17T20:11:26.442Z,98462.16
2022-11-17T20:13:53.693Z,98466.28
2022-11-17T20:16:21.975Z,98475.44
2022-11-17T20:18:50.327Z,98478.66
2022-11-17T20:21:17.486Z,98478.22
2022-11-17T20:23:44.290Z,98485.75
2022-11-17T20:26:15.976Z,98480.13
2022-11-17T20:28:43.110Z,98484.78
2022-11-17T20:31:13.603Z,98483.56
2022-11-17T20:33:41.254Z,98491.09
2022-11-17T20:36:09.738Z,98494.53
2022-11-17T20:38:40.142Z,98495.97
2022-11-17T20:41:07.528Z,98505.72
2022-11-17T20:43:34.716Z,98516.50
2022-11-17T20:46:04.276Z,98521.16
2022-11-17T20:48:40.687Z,98517.34
2022-11-17T20:51:09.920Z,98525.06
2022-11-17T20:53:36.854Z,98517.63
2022-11-17T20:56:08.611Z,98531.56
2022-11-17T20:58:35.896Z,98528.72
2022-11-17T21:01:09.139Z,98526.69
2022-11-17T21:03:36.413Z,98535.44
2022-11-17T21:06:06.029Z,98545.53
2022-11-17T21:08:37.658Z,98545.97
2022-11-17T21:11:06.860Z,98550.78
2022-11-17T21:13:35.101Z,98559.50
2022-11-17T21:16:03.283Z,98556.91
2022-11-17T21:18:30.168Z,98567.44
2022-11-17T21:21:00.999Z,98573.72
2022-11-17T21:23:29.004Z,98574.75
2022-11-17T21:25:55.854Z,98574.75
2022-11-17T21:28:22.968Z,98584.03
2022-11-17T21:30:49.792Z,98585.25
2022-11-17T21:33:16.983Z,98587.88
2022-11-17T21:35:44.038Z,98589.50
2022-11-17T21:38:12.480Z,98598.59
2022-11-17T21:40:39.431Z,98603.84
2022-11-17T21:43:06.458Z,98601.88
2022-11-17T21:45:33.767Z,98607.94
2022-11-17T21:48:00.645Z,98616.06
2022-11-17T21:50:27.427Z,98608.34
2022-11-17T21:52:54.642Z,98616.66
2022-11-17T21:55:25.359Z,98622.38
2022-11-17T21:57:52.295Z,98623.19
2022-11-17T22:00:22.013Z,98620.53
2022-11-17T22:02:51.235Z,98622.94
2022-11-17T22:05:19.386Z,98633.28
2022-11-17T22:07:46.224Z,98634.66
2022-11-17T22:10:13.025Z,98640.16
2022-11-17T22:12:39.874Z,98643.81
2022-11-17T22:15:11.531Z,98636.13
2022-11-17T22:17:38.905Z,98638.78
2022-11-17T22:20:06.323Z,98640.00
2022-11-17T22:22:33.193Z,98639.41
2022-11-17T22:25:11.632Z,98649.38
2022-11-17T22:27:43.863Z,98651.84
2022-11-17T22:30:11.641Z,98651.84
2022-11-17T22:32:42.572Z,98657.09
2022-11-17T22:35:19.998Z,98657.50
2022-11-17T22:37:50.534Z,98665.41
2022-11-17T22:40:17.429Z,98661.38
2022-11-17T22:42:44.337Z,98665.66
2022-11-17T22:45:21.061Z,98674.56
2022-11-17T22:47:47.912Z,98671.91
2022-11-17T22:50:14.790Z,98680.41
2022-11-17T22:52:41.717Z,98682.03
2022-11-17T22:55:08.941Z,98678.97
2022-11-17T22:57:35.722Z,98680.53
2022-11-17T23:00:02.628Z,98688.25
2022-11-17T23:02:30.489Z,98680.97
2022-11-17T23:04:57.543Z,98688.72
2022-11-17T23:07:24.697Z,98697.63
2022-11-17T23:09:51.525Z,98693.56
2022-11-17T23:12:19.098Z,98701.28
2022-11-17T23:14:45.947Z,98707.97
2022-11-17T23:17:13.031Z,98710.41
2022-11-17T23:19:40.691Z,98704.16
2022-11-17T23:22:08.019Z,98705.56
2022-11-17T23:24:35.087Z,98717.50
2022-11-17T23:27:06.836Z,98714.88
2022-11-17T23:29:33.932Z,98725.16
2022-11-17T23:32:01.006Z,98727.03
2022-11-17T23:34:28.185Z,98725.59
2022-11-17T23:37:03.314Z,98725.41
2022-11-17T23:39:30.832Z,98733.47
2022-11-17T23:41:57.991Z,98739.16
2022-11-17T23:44:25.049Z,98745.03
2022-11-17T23:46:51.905Z,98746.25
2022-11-17T23:49:19.229Z,98745.06
2022-11-17T23:51:46.650Z,98751.91
2022-11-17T23:54:13.674Z,98762.22
2022-11-17T23:56:41.011Z,98759.38
2022-11-17T23:59:08.495Z,98762.22
